Time;durP1;ratioP1;P1;durP2;ratioP2;P2;SDS_P1;SDS_P2;PMS_P1;PMS_P2;Temp;Humidity;BMP_temperature;BMP_pressure;BME280_temperature;BME280_humidity;BME280_pressure;Samples;Min_cycle;Max_cycle;Signal;HPM_P1;HPM_P2
2023/08/29 00:02:32;;;;;;;27.52;5.88;;;16.40;99.90;;;;;;5089982;28;20047;-66
2023/08/29 00:05:36;;;;;;;28.83;5.70;;;16.50;99.90;;;;;;5077988;28;20379;-66
2023/08/29 00:08:40;;;;;;;32.20;5.80;;;16.50;99.90;;;;;;5089842;28;20059;-65
2023/08/29 00:11:44;;;;;;;33.05;5.50;;;16.50;99.90;;;;;;5089694;28;20048;-65
2023/08/29 00:14:49;;;;;;;26.48;5.88;;;16.60;99.90;;;;;;5090175;28;20126;-66
2023/08/29 00:17:53;;;;;;;35.85;5.82;;;16.60;99.90;;;;;;5089311;28;20035;-66
2023/08/29 00:20:58;;;;;;;31.75;6.50;;;16.70;99.90;;;;;;5077821;28;20285;-66
2023/08/29 00:24:03;;;;;;;38.42;7.07;;;16.70;99.90;;;;;;5090190;28;20039;-66
2023/08/29 00:27:07;;;;;;;30.63;5.10;;;16.70;99.90;;;;;;5089924;28;20035;-66
2023/08/29 00:30:12;;;;;;;26.02;5.90;;;16.70;99.90;;;;;;5077468;28;20063;-66
2023/08/29 00:33:16;;;;;;;25.35;5.03;;;16.70;99.90;;;;;;5089732;28;20374;-66
2023/08/29 00:36:21;;;;;;;22.92;4.90;;;16.60;99.90;;;;;;5077683;28;20051;-66
2023/08/29 00:39:25;;;;;;;27.52;5.50;;;16.60;99.90;;;;;;5077492;28;20379;-66
2023/08/29 00:42:29;;;;;;;33.80;5.28;;;16.70;99.90;;;;;;5089873;28;20039;-66
2023/08/29 00:45:39;;;;;;;37.78;7.07;;;16.70;99.90;;;;;;5077961;28;20677;-66
2023/08/29 00:48:44;;;;;;;25.10;5.82;;;16.70;99.90;;;;;;5093656;28;20039;-66
2023/08/29 00:51:48;;;;;;;25.42;5.30;;;16.80;99.90;;;;;;5080454;28;20039;-66
2023/08/29 00:54:52;;;;;;;28.67;5.93;;;16.80;99.90;;;;;;5080772;28;20043;-66
2023/08/29 00:57:59;;;;;;;30.02;5.53;;;16.80;99.90;;;;;;5093241;28;20039;-67
2023/08/29 01:01:03;;;;;;;25.35;5.28;;;16.90;99.90;;;;;;5093925;28;20043;-66
2023/08/29 01:04:09;;;;;;;27.50;5.05;;;16.90;99.90;;;;;;5080664;28;20043;-66
2023/08/29 01:07:13;;;;;;;29.17;6.53;;;16.80;99.90;;;;;;5093454;28;20039;-65
2023/08/29 01:10:22;;;;;;;21.75;4.88;;;16.90;99.90;;;;;;5093281;28;20043;-65
2023/08/29 01:13:54;;;;;;;20.90;5.22;;;16.90;99.90;;;;;;5092643;28;20063;-65
2023/08/29 01:17:07;;;;;;;26.35;4.78;;;16.90;99.90;;;;;;5080761;28;20040;-66
2023/08/29 01:20:15;;;;;;;22.15;4.70;;;16.90;99.90;;;;;;5080455;28;20135;-65
2023/08/29 01:23:40;;;;;;;16.20;4.45;;;16.90;99.90;;;;;;5092848;28;20046;-65
2023/08/29 01:26:46;;;;;;;19.52;4.53;;;16.90;99.90;;;;;;5092893;28;20043;-65
2023/08/29 01:29:50;;;;;;;16.77;3.97;;;16.90;99.90;;;;;;5080563;28;20051;-65
2023/08/29 01:32:56;;;;;;;17.65;4.20;;;16.80;99.90;;;;;;5092255;28;20505;-66
2023/08/29 01:36:00;;;;;;;17.65;4.03;;;16.90;99.90;;;;;;5080580;28;20052;-65
2023/08/29 01:39:04;;;;;;;19.70;3.42;;;16.90;99.90;;;;;;5092746;28;20047;-66
2023/08/29 01:42:09;;;;;;;19.48;4.05;;;16.90;99.90;;;;;;5079719;28;20394;-65
2023/08/29 01:45:13;;;;;;;14.65;3.88;;;16.80;99.90;;;;;;5080063;28;20047;-66
2023/08/29 01:48:17;;;;;;;17.00;3.58;;;16.80;99.90;;;;;;5092918;28;20059;-66
2023/08/29 01:51:21;;;;;;;15.80;3.30;;;16.80;99.90;;;;;;5092078;28;20051;-66
2023/08/29 01:54:26;;;;;;;21.65;4.38;;;16.80;99.90;;;;;;5080165;28;20043;-66
2023/08/29 01:57:35;;;;;;;14.75;3.67;;;16.80;99.90;;;;;;5092004;28;20505;-65
2023/08/29 02:00:40;;;;;;;16.95;3.25;;;16.80;99.90;;;;;;5079508;28;20036;-66
2023/08/29 02:03:45;;;;;;;17.35;3.70;;;16.80;99.90;;;;;;5092438;28;20494;-66
2023/08/29 02:06:49;;;;;;;14.82;3.42;;;16.70;99.90;;;;;;5079665;28;20047;-66
2023/08/29 02:09:54;;;;;;;14.25;3.03;;;16.70;99.90;;;;;;5079671;28;20051;-66
2023/08/29 02:12:58;;;;;;;9.38;2.75;;;16.80;99.90;;;;;;5079051;28;20047;-66
2023/08/29 02:16:02;;;;;;;16.65;3.35;;;16.80;99.90;;;;;;5080037;28;20406;-66
2023/08/29 02:19:06;;;;;;;16.15;2.72;;;16.80;99.90;;;;;;5079831;28;20047;-66
2023/08/29 02:22:12;;;;;;;12.02;3.58;;;16.80;99.90;;;;;;5079311;28;20102;-66
2023/08/29 02:25:16;;;;;;;13.27;3.25;;;16.90;99.90;;;;;;5092275;28;20055;-66
2023/08/29 02:28:20;;;;;;;12.07;3.30;;;16.90;99.90;;;;;;5091784;28;20071;-65
2023/08/29 02:31:24;;;;;;;17.33;3.47;;;16.90;99.90;;;;;;5091484;28;20407;-66
2023/08/29 02:34:28;;;;;;;11.20;3.78;;;16.90;99.90;;;;;;5091562;28;20047;-66
2023/08/29 02:37:34;;;;;;;10.18;3.00;;;16.90;99.90;;;;;;5091564;28;20055;-66
2023/08/29 02:40:38;;;;;;;15.15;3.10;;;17.00;99.90;;;;;;5091537;28;20039;-66
2023/08/29 02:43:42;;;;;;;16.17;3.65;;;17.00;99.90;;;;;;5091133;28;20047;-66
2023/08/29 02:46:46;;;;;;;18.55;3.45;;;17.00;99.90;;;;;;5091468;28;20490;-66
2023/08/29 02:49:50;;;;;;;19.40;3.78;;;16.90;99.90;;;;;;5091289;28;20043;-66
2023/08/29 02:52:54;;;;;;;13.30;2.90;;;16.80;99.90;;;;;;5090904;28;20047;-65
2023/08/29 02:55:59;;;;;;;17.00;3.17;;;16.80;99.90;;;;;;5078795;28;20042;-66
2023/08/29 02:59:03;;;;;;;9.23;3.03;;;16.80;99.90;;;;;;5091341;28;20498;-66
2023/08/29 03:02:07;;;;;;;13.80;4.03;;;16.80;99.90;;;;;;5078355;28;20410;-66
2023/08/29 03:05:11;;;;;;;15.32;3.75;;;16.90;99.90;;;;;;5091197;28;20046;-66
2023/08/29 03:08:16;;;;;;;14.23;3.60;;;16.90;99.90;;;;;;5077920;28;20039;-66
2023/08/29 03:11:19;;;;;;;13.80;3.28;;;16.90;99.90;;;;;;5077660;28;20047;-66
2023/08/29 03:14:24;;;;;;;16.30;4.10;;;16.90;99.90;;;;;;5078373;28;20066;-66
2023/08/29 03:17:28;;;;;;;16.52;3.92;;;16.80;99.90;;;;;;5078477;28;20506;-66
2023/08/29 03:20:33;;;;;;;11.02;3.35;;;16.80;99.90;;;;;;5078255;28;20502;-66
2023/08/29 03:23:37;;;;;;;13.15;3.00;;;16.80;99.90;;;;;;5090214;28;20047;-66
2023/08/29 03:26:41;;;;;;;12.05;3.95;;;16.80;99.90;;;;;;5078108;28;20055;-66
2023/08/29 03:29:45;;;;;;;14.68;3.72;;;16.90;99.90;;;;;;5077874;28;20519;-66
2023/08/29 03:32:50;;;;;;;13.73;3.72;;;16.90;99.90;;;;;;5077714;28;20043;-66
2023/08/29 03:35:58;;;;;;;12.30;3.10;;;16.90;99.90;;;;;;5090298;28;20514;-66
2023/08/29 03:39:03;;;;;;;10.55;3.22;;;16.90;99.90;;;;;;5090797;28;20035;-65
2023/08/29 03:42:06;;;;;;;17.63;4.45;;;16.90;99.90;;;;;;5089711;28;20067;-65
2023/08/29 03:45:10;;;;;;;16.50;4.07;;;16.90;99.90;;;;;;5090950;28;20425;-66
2023/08/29 03:48:14;;;;;;;13.20;3.88;;;16.90;99.90;;;;;;5090719;28;20071;-66
2023/08/29 03:51:18;;;;;;;15.40;4.05;;;16.80;99.90;;;;;;5090007;28;20074;-65
2023/08/29 03:54:22;;;;;;;16.33;3.80;;;16.80;99.90;;;;;;5078045;28;20523;-65
2023/08/29 03:57:27;;;;;;;25.02;5.00;;;16.80;99.90;;;;;;5090480;28;20592;-65
2023/08/29 04:00:31;;;;;;;15.45;4.38;;;16.80;99.90;;;;;;5077803;28;20051;-65
2023/08/29 04:03:35;;;;;;;13.85;4.05;;;16.90;99.90;;;;;;5090060;28;20407;-66
2023/08/29 04:06:39;;;;;;;11.77;3.58;;;16.90;99.90;;;;;;5077929;28;20301;-66
2023/08/29 04:09:43;;;;;;;14.98;4.00;;;16.90;99.90;;;;;;5077577;28;20059;-66
2023/08/29 04:12:47;;;;;;;15.55;4.15;;;17.00;99.90;;;;;;5089732;28;20054;-66
2023/08/29 04:15:51;;;;;;;14.18;4.05;;;17.00;99.90;;;;;;5090356;28;20043;-66
2023/08/29 04:18:55;;;;;;;13.77;3.95;;;17.00;99.90;;;;;;5077592;28;20510;-66
2023/08/29 04:21:59;;;;;;;21.45;4.05;;;17.00;99.90;;;;;;5093522;28;20110;-66
2023/08/29 04:25:04;;;;;;;19.75;4.53;;;17.00;99.90;;;;;;5093929;28;20501;-66
2023/08/29 04:28:08;;;;;;;15.07;3.78;;;17.00;99.90;;;;;;5093831;28;20043;-65
2023/08/29 04:31:12;;;;;;;12.02;4.43;;;17.00;99.90;;;;;;5093719;28;20031;-65
2023/08/29 04:34:16;;;;;;;12.02;3.92;;;17.00;99.90;;;;;;5094463;28;20469;-65
2023/08/29 04:37:20;;;;;;;17.15;3.88;;;17.00;99.90;;;;;;5093863;28;20422;-65
2023/08/29 04:40:24;;;;;;;12.73;3.78;;;17.00;99.90;;;;;;5093500;28;20043;-66
2023/08/29 04:43:28;;;;;;;13.90;2.95;;;17.00;99.90;;;;;;5093595;28;20051;-66
2023/08/29 04:46:32;;;;;;;10.68;2.60;;;17.00;99.90;;;;;;5080060;28;20050;-66
2023/08/29 04:49:36;;;;;;;13.15;3.03;;;17.00;99.90;;;;;;5081271;28;20051;-66
2023/08/29 04:52:40;;;;;;;18.30;5.57;;;17.00;99.90;;;;;;5092924;28;20489;-65
2023/08/29 04:55:43;;;;;;;11.25;3.03;;;17.00;99.90;;;;;;5093781;28;20047;-65
2023/08/29 04:58:48;;;;;;;9.20;3.13;;;17.10;99.90;;;;;;5093524;28;20043;-65
2023/08/29 05:01:52;;;;;;;11.73;2.92;;;17.10;99.90;;;;;;5068829;28;20047;-66
2023/08/29 05:04:56;;;;;;;11.43;2.67;;;17.10;99.90;;;;;;5080997;28;20386;-65
2023/08/29 05:08:00;;;;;;;16.85;3.53;;;17.10;99.90;;;;;;5093156;28;20036;-66
2023/08/29 05:11:05;;;;;;;11.15;3.13;;;17.10;99.90;;;;;;5080611;28;20039;-66
2023/08/29 05:14:08;;;;;;;13.88;3.30;;;17.10;99.90;;;;;;5093381;28;20063;-66
2023/08/29 05:17:12;;;;;;;8.70;2.83;;;17.20;99.90;;;;;;5080526;28;20043;-67
2023/08/29 05:20:17;;;;;;;15.63;3.30;;;17.20;99.90;;;;;;5093182;28;20059;-66
2023/08/29 05:23:20;;;;;;;12.65;2.95;;;17.20;99.90;;;;;;5092341;28;20055;-67
2023/08/29 05:26:24;;;;;;;14.32;2.58;;;17.30;99.90;;;;;;5092885;28;20493;-66
2023/08/29 05:29:29;;;;;;;15.07;3.65;;;17.30;99.90;;;;;;5093135;28;20051;-67
2023/08/29 05:32:33;;;;;;;13.07;3.25;;;17.30;99.90;;;;;;5078835;28;20047;-66
2023/08/29 05:35:37;;;;;;;10.70;3.45;;;17.20;99.90;;;;;;5093053;28;20043;-67
2023/08/29 05:38:41;;;;;;;15.63;3.38;;;17.30;99.90;;;;;;5092885;28;20051;-66
2023/08/29 05:41:46;;;;;;;17.65;3.35;;;17.30;99.90;;;;;;5092185;28;20039;-67
2023/08/29 05:44:50;;;;;;;12.20;3.15;;;17.50;99.90;;;;;;5092928;28;20051;-66
2023/08/29 05:47:54;;;;;;;16.33;2.67;;;17.50;99.90;;;;;;5092454;28;20490;-66
2023/08/29 05:50:58;;;;;;;11.38;3.42;;;17.60;99.90;;;;;;5092210;28;20387;-67
2023/08/29 05:54:02;;;;;;;52.83;4.95;;;17.60;99.90;;;;;;5092519;28;20051;-67
2023/08/29 05:57:06;;;;;;;15.23;3.70;;;17.60;99.90;;;;;;5092520;28;20380;-67
2023/08/29 06:00:13;;;;;;;17.33;3.63;;;17.60;99.90;;;;;;5092716;28;20051;-67
2023/08/29 06:03:20;;;;;;;14.27;3.53;;;17.60;99.90;;;;;;5091604;28;20048;-67
2023/08/29 06:06:24;;;;;;;12.50;3.40;;;17.60;99.90;;;;;;5092100;28;20051;-67
2023/08/29 06:09:28;;;;;;;10.00;3.38;;;17.70;99.90;;;;;;5092319;28;20047;-67
2023/08/29 06:12:33;;;;;;;13.57;3.42;;;17.60;99.90;;;;;;5091283;28;20062;-67
2023/08/29 06:15:38;;;;;;;12.20;3.75;;;17.80;99.90;;;;;;5092098;28;20498;-67
2023/08/29 06:18:42;;;;;;;14.90;4.10;;;17.70;99.90;;;;;;5092077;28;20067;-67
2023/08/29 06:21:47;;;;;;;21.73;4.00;;;17.70;99.90;;;;;;5091752;28;20043;-67
2023/08/29 06:24:51;;;;;;;18.98;3.95;;;17.60;99.90;;;;;;5092129;28;20510;-67
2023/08/29 06:27:55;;;;;;;12.23;3.53;;;17.40;99.90;;;;;;5092020;28;20043;-67
2023/08/29 06:31:07;;;;;;;11.40;3.50;;;17.30;99.90;;;;;;5079552;28;20047;-67
2023/08/29 06:34:11;;;;;;;14.95;4.13;;;17.20;99.90;;;;;;5091631;28;20035;-67
2023/08/29 06:37:16;;;;;;;16.35;4.40;;;17.40;99.90;;;;;;5091946;28;20478;-67
2023/08/29 06:40:19;;;;;;;13.80;3.53;;;17.50;99.90;;;;;;5091916;28;20035;-67
2023/08/29 06:43:25;;;;;;;13.45;4.45;;;17.70;99.90;;;;;;5091294;28;20036;-68
2023/08/29 06:46:30;;;;;;;17.15;4.25;;;18.00;99.90;;;;;;5091929;28;20051;-68
2023/08/29 06:49:35;;;;;;;13.93;4.05;;;18.00;99.90;;;;;;5061553;28;20055;-68
2023/08/29 06:52:39;;;;;;;18.98;4.35;;;18.10;99.90;;;;;;5081896;28;20043;-68
2023/08/29 06:55:46;;;;;;;13.75;4.45;;;18.40;99.90;;;;;;5078199;28;20701;-66
2023/08/29 06:58:50;;;;;;;15.77;4.90;;;18.70;99.90;;;;;;5079105;28;20345;-68
2023/08/29 07:01:56;;;;;;;12.63;3.00;;;19.10;99.90;;;;;;5088885;28;20395;-67
2023/08/29 07:05:00;;;;;;;15.00;3.85;;;19.60;99.90;;;;;;5075364;28;20044;-68
2023/08/29 07:08:04;;;;;;;13.13;3.03;;;20.00;99.90;;;;;;5075843;28;20482;-68
2023/08/29 07:11:08;;;;;;;14.25;3.72;;;20.70;99.90;;;;;;5080870;28;20383;-68
2023/08/29 07:14:12;;;;;;;13.57;3.08;;;21.20;99.90;;;;;;5084321;28;20039;-68
2023/08/29 07:17:16;;;;;;;11.27;2.65;;;21.40;99.90;;;;;;5084095;28;20395;-68
2023/08/29 07:20:21;;;;;;;14.10;3.60;;;21.50;99.90;;;;;;5078437;28;20510;-68
2023/08/29 07:23:26;;;;;;;19.33;4.18;;;21.60;99.90;;;;;;5082606;28;20044;-68
2023/08/29 07:26:30;;;;;;;15.60;3.72;;;21.20;99.90;;;;;;5077347;28;20526;-68
2023/08/29 07:29:34;;;;;;;19.15;5.28;;;20.60;99.90;;;;;;5083735;28;20043;-68
2023/08/29 07:32:38;;;;;;;15.70;4.40;;;20.40;99.90;;;;;;5082107;28;20055;-68
2023/08/29 07:35:44;;;;;;;16.75;4.28;;;20.30;99.90;;;;;;5083270;28;20394;-68
2023/08/29 07:38:48;;;;;;;22.45;4.85;;;19.60;99.90;;;;;;5080926;28;20047;-68
2023/08/29 07:41:52;;;;;;;18.67;4.63;;;19.60;99.90;;;;;;5080741;28;20037;-68
2023/08/29 07:44:56;;;;;;;19.02;4.18;;;19.80;99.90;;;;;;5079370;28;20043;-68
2023/08/29 07:48:02;;;;;;;25.88;4.55;;;19.70;99.90;;;;;;5085782;28;20394;-68
2023/08/29 07:51:06;;;;;;;20.25;4.47;;;19.80;99.90;;;;;;5083297;28;20505;-68
2023/08/29 07:54:10;;;;;;;20.17;4.82;;;20.20;99.90;;;;;;5087372;28;20043;-68
2023/08/29 07:57:14;;;;;;;19.00;3.78;;;20.50;99.90;;;;;;5076164;28;20474;-68
2023/08/29 08:00:44;;;;;;;15.85;3.60;;;20.60;99.90;;;;;;5080926;28;20044;-68
2023/08/29 08:04:59;;;;;;;29.75;4.05;;;20.70;99.90;;;;;;5073129;28;20177;-68
2023/08/29 08:08:07;;;;;;;24.23;4.13;;;20.90;99.90;;;;;;5092769;28;20051;-69
2023/08/29 08:11:11;;;;;;;18.67;4.05;;;21.40;99.90;;;;;;5085443;28;20055;-69
2023/08/29 08:14:17;;;;;;;19.38;3.80;;;21.10;99.90;;;;;;5098819;28;20039;-68
2023/08/29 08:17:21;;;;;;;24.27;4.13;;;21.10;99.90;;;;;;5092150;28;20035;-68
2023/08/29 08:20:25;;;;;;;20.20;3.80;;;21.60;99.90;;;;;;5086551;28;20054;-68
2023/08/29 08:23:29;;;;;;;17.45;3.85;;;21.80;99.90;;;;;;5090913;28;20054;-69
2023/08/29 08:26:33;;;;;;;20.38;4.18;;;21.40;99.90;;;;;;5095405;28;20043;-68
2023/08/29 08:29:37;;;;;;;18.58;3.78;;;20.70;99.90;;;;;;5101975;28;20520;-68
2023/08/29 08:32:41;;;;;;;20.42;4.47;;;20.50;99.90;;;;;;5104756;28;20058;-69
2023/08/29 08:35:44;;;;;;;23.90;4.95;;;20.70;99.90;;;;;;5091462;28;20039;-69
2023/08/29 08:38:48;;;;;;;19.05;3.72;;;20.50;99.90;;;;;;5091354;28;20236;-68
2023/08/29 08:41:53;;;;;;;20.83;4.85;;;20.40;99.90;;;;;;5091959;28;20051;-67
2023/08/29 08:44:57;;;;;;;18.83;4.60;;;20.20;99.90;;;;;;5100221;28;20054;-67
2023/08/29 08:48:02;;;;;;;26.33;4.65;;;20.50;99.90;;;;;;5095508;28;20047;-67
2023/08/29 08:51:09;;;;;;;18.77;3.70;;;20.70;99.90;;;;;;5091904;28;20493;-69
2023/08/29 08:54:15;;;;;;;7.35;2.50;;;20.80;99.90;;;;;;5077508;28;20039;-68
2023/08/29 08:57:19;;;;;;;6.93;2.00;;;20.90;99.90;;;;;;5091647;28;20458;-68
2023/08/29 09:00:25;;;;;;;5.65;1.50;;;21.10;99.90;;;;;;5078938;28;20028;-68
2023/08/29 09:03:29;;;;;;;4.75;1.55;;;21.10;99.90;;;;;;5091447;28;20037;-67
2023/08/29 09:06:34;;;;;;;4.47;1.40;;;21.10;99.90;;;;;;5091367;28;20050;-67
2023/08/29 09:09:38;;;;;;;3.25;1.00;;;21.00;99.90;;;;;;5083729;28;20051;-68
2023/08/29 09:12:50;;;;;;;2.40;0.90;;;20.80;99.90;;;;;;5090001;28;20051;-68
2023/08/29 09:15:54;;;;;;;;;;;20.70;99.90;;;;;;5086874;28;20043;-68
2023/08/29 09:18:58;;;;;;;3.55;0.73;;;20.70;99.90;;;;;;5084246;28;19927;-68
2023/08/29 09:22:02;;;;;;;5.38;0.90;;;20.90;99.90;;;;;;5086410;28;20047;-68
2023/08/29 09:25:07;;;;;;;3.25;1.05;;;21.20;99.90;;;;;;5074231;28;20047;-68
2023/08/29 09:28:11;;;;;;;3.35;1.10;;;21.50;99.90;;;;;;5092349;28;20047;-69
2023/08/29 09:31:16;;;;;;;3.78;1.17;;;21.70;99.90;;;;;;5087677;28;20046;-69
2023/08/29 09:34:30;;;;;;;4.13;0.88;;;21.90;99.90;;;;;;5088226;28;20398;-69
2023/08/29 09:37:40;;;;;;;4.05;1.85;;;22.10;99.90;;;;;;5083571;28;20036;-68
2023/08/29 09:40:55;;;;;;;2.97;0.90;;;22.10;99.90;;;;;;5081331;28;20048;-68
2023/08/29 09:43:59;;;;;;;3.45;0.70;;;22.00;99.90;;;;;;5093275;28;20043;-67
2023/08/29 09:47:08;;;;;;;4.88;0.90;;;21.70;99.90;;;;;;5087605;28;20043;-67
2023/08/29 09:50:12;;;;;;;5.38;1.17;;;21.50;99.90;;;;;;5090734;28;20055;-68
2023/08/29 09:53:18;;;;;;;5.90;1.38;;;21.40;99.90;;;;;;5094906;28;20035;-67
2023/08/29 09:56:25;;;;;;;6.75;1.30;;;21.30;99.90;;;;;;5073243;28;20043;-68
2023/08/29 09:59:31;;;;;;;6.82;1.63;;;21.40;99.90;;;;;;5098833;28;20035;-68
2023/08/29 10:02:38;;;;;;;3.00;1.20;;;21.60;99.90;;;;;;5091597;28;20043;-68
2023/08/29 10:05:44;;;;;;;2.83;1.02;;;22.00;99.90;;;;;;5081405;28;20048;-68
2023/08/29 10:09:00;;;;;;;2.75;0.90;;;23.00;99.90;;;;;;5092105;28;20043;-67
2023/08/29 10:12:05;;;;;;;5.45;1.20;;;24.30;99.90;;;;;;5085567;28;20043;-68
2023/08/29 10:15:11;;;;;;;3.50;0.98;;;24.90;99.90;;;;;;5085520;28;20062;-67
2023/08/29 10:18:15;;;;;;;6.50;1.23;;;26.10;99.90;;;;;;5091806;28;20035;-67
2023/08/29 10:21:21;;;;;;;2.33;0.90;;;28.60;99.90;;;;;;5081155;28;20853;-68
2023/08/29 10:24:27;;;;;;;4.63;1.52;;;30.50;99.90;;;;;;5087695;28;20043;-68
2023/08/29 10:27:32;;;;;;;3.00;0.75;;;32.70;99.90;;;;;;5090912;28;20071;-68
2023/08/29 10:30:39;;;;;;;4.18;0.85;;;34.50;96.80;;;;;;5090235;28;20047;-66
2023/08/29 10:33:43;;;;;;;2.50;1.23;;;34.30;94.90;;;;;;5090940;28;20047;-67
2023/08/29 10:36:47;;;;;;;4.25;1.20;;;32.40;94.90;;;;;;5079246;28;20043;-66
2023/08/29 10:39:51;;;;;;;4.57;1.33;;;27.50;99.90;;;;;;5083505;28;20058;-67
2023/08/29 10:43:00;;;;;;;5.43;1.40;;;26.10;99.90;;;;;;5092211;28;20039;-67
2023/08/29 10:46:10;;;;;;;3.42;1.33;;;24.00;99.90;;;;;;5087405;28;20055;-67
2023/08/29 10:49:14;;;;;;;5.68;1.70;;;23.30;99.90;;;;;;5091222;28;20372;-67
2023/08/29 10:52:20;;;;;;;7.50;1.83;;;23.80;99.90;;;;;;5089581;28;20035;-67
2023/08/29 10:55:29;;;;;;;4.00;1.15;;;23.30;99.90;;;;;;5084371;28;20027;-67
2023/08/29 10:58:34;;;;;;;5.82;1.52;;;24.10;99.90;;;;;;5082427;28;20043;-67
2023/08/29 11:01:39;;;;;;;7.70;1.83;;;24.50;99.90;;;;;;5081772;28;20039;-67
2023/08/29 11:04:43;;;;;;;5.13;1.65;;;24.50;99.90;;;;;;5094490;28;20050;-67
2023/08/29 11:07:47;;;;;;;4.40;1.35;;;24.30;99.90;;;;;;5087651;28;20047;-67
2023/08/29 11:11:14;;;;;;;6.07;1.70;;;25.30;99.90;;;;;;5084165;28;20039;-67
2023/08/29 11:14:18;;;;;;;6.75;2.10;;;25.10;99.90;;;;;;5079926;28;20051;-67
2023/08/29 11:17:23;;;;;;;4.38;1.50;;;25.40;99.90;;;;;;5085558;28;20047;-67
2023/08/29 11:20:30;;;;;;;4.68;1.40;;;24.30;99.90;;;;;;5096953;28;20399;-67
2023/08/29 11:23:38;;;;;;;5.70;1.98;;;26.00;99.90;;;;;;5084063;28;20391;-67
2023/08/29 11:26:45;;;;;;;3.47;1.27;;;28.40;99.90;;;;;;5084933;28;20493;-67
2023/08/29 11:29:50;;;;;;;2.92;1.13;;;30.40;99.90;;;;;;5085098;28;20043;-67
2023/08/29 11:32:54;;;;;;;2.30;0.95;;;32.70;98.10;;;;;;5080537;28;20493;-67
2023/08/29 11:36:00;;;;;;;3.75;1.10;;;32.80;97.50;;;;;;5084174;28;20395;-68
2023/08/29 11:39:06;;;;;;;3.20;1.10;;;32.40;96.60;;;;;;5078066;28;20027;-67
2023/08/29 11:42:10;;;;;;;3.58;1.08;;;31.30;97.00;;;;;;5073214;28;20050;-68
2023/08/29 11:45:17;;;;;;;3.10;0.80;;;33.30;95.00;;;;;;5082599;28;20047;-68
2023/08/29 11:48:27;;;;;;;2.75;0.88;;;34.10;95.70;;;;;;5083501;28;20384;-67
2023/08/29 11:51:31;;;;;;;3.17;0.77;;;34.80;91.50;;;;;;5083719;28;20060;-68
2023/08/29 11:54:54;;;;;;;2.70;1.23;;;34.70;92.00;;;;;;5079616;28;20046;-66
2023/08/29 11:57:58;;;;;;;1.38;0.70;;;32.50;94.30;;;;;;5085079;28;20039;-67
2023/08/29 12:01:10;;;;;;;2.22;1.00;;;31.10;95.50;;;;;;5083565;28;20036;-66
2023/08/29 12:04:16;;;;;;;4.55;1.10;;;29.60;97.80;;;;;;5081610;28;20126;-67
2023/08/29 12:07:21;;;;;;;2.88;0.95;;;29.80;96.40;;;;;;5077326;28;20043;-66
2023/08/29 12:10:27;;;;;;;2.97;0.98;;;30.80;96.30;;;;;;5078471;28;20048;-67
2023/08/29 12:13:31;;;;;;;2.20;0.90;;;30.60;95.10;;;;;;5088604;28;20059;-67
2023/08/29 12:16:35;;;;;;;4.13;1.13;;;29.70;97.10;;;;;;5080496;28;20043;-66
2023/08/29 12:19:39;;;;;;;2.20;0.70;;;29.80;98.30;;;;;;5090272;28;20039;-67
2023/08/29 12:22:48;;;;;;;1.75;0.95;;;29.70;97.00;;;;;;5095302;28;20031;-67
2023/08/29 12:25:55;;;;;;;2.63;0.93;;;27.70;99.40;;;;;;5070279;28;20047;-67
2023/08/29 12:29:02;;;;;;;2.90;1.00;;;26.80;99.90;;;;;;5086624;28;20383;-67
2023/08/29 12:32:07;;;;;;;1.80;0.80;;;26.10;99.90;;;;;;5085454;28;20482;-67
2023/08/29 12:35:14;;;;;;;4.57;1.20;;;26.00;99.90;;;;;;5086007;28;20043;-66
2023/08/29 12:38:18;;;;;;;2.40;1.00;;;24.70;99.90;;;;;;5087621;28;20246;-68
2023/08/29 12:41:23;;;;;;;2.35;0.80;;;22.90;99.90;;;;;;5088684;28;20031;-67
2023/08/29 12:44:27;;;;;;;3.75;1.10;;;22.30;99.90;;;;;;5093203;28;20047;-68
2023/08/29 12:47:32;;;;;;;7.90;1.10;;;21.60;99.90;;;;;;5090047;28;20059;-68
2023/08/29 12:50:37;;;;;;;4.38;1.45;;;20.50;99.90;;;;;;5084579;28;20040;-68
2023/08/29 12:53:43;;;;;;;7.03;1.70;;;21.30;99.90;;;;;;5088432;28;20047;-68
2023/08/29 12:56:48;;;;;;;12.80;1.85;;;21.20;99.90;;;;;;5087036;28;20490;-68
2023/08/29 12:59:52;;;;;;;14.30;2.33;;;21.10;99.90;;;;;;5084811;28;20494;-67
2023/08/29 13:02:56;;;;;;;8.60;2.40;;;21.00;99.90;;;;;;5091687;28;20378;-68
2023/08/29 13:06:01;;;;;;;6.70;1.73;;;20.90;99.90;;;;;;5090452;28;20039;-69
2023/08/29 13:09:06;;;;;;;5.05;1.50;;;20.60;99.90;;;;;;5098177;28;20030;-69
2023/08/29 13:12:10;;;;;;;5.00;1.38;;;20.50;99.90;;;;;;5113585;28;20259;-67
2023/08/29 13:15:18;;;;;;;4.45;1.48;;;20.30;99.90;;;;;;5114163;28;20039;-67
2023/08/29 13:18:23;;;;;;;4.45;1.50;;;20.10;99.90;;;;;;5113167;28;20382;-68
2023/08/29 13:21:29;;;;;;;4.30;1.45;;;20.20;99.90;;;;;;5113062;28;20394;-67
2023/08/29 13:24:34;;;;;;;4.57;1.40;;;20.20;99.90;;;;;;5101031;28;20042;-68
2023/08/29 13:27:39;;;;;;;4.72;1.27;;;20.10;99.90;;;;;;5113089;28;20039;-67
2023/08/29 13:30:43;;;;;;;4.85;1.50;;;20.10;99.90;;;;;;5112923;28;20035;-68
2023/08/29 13:33:48;;;;;;;3.88;1.17;;;20.20;99.90;;;;;;5113289;28;20117;-68
2023/08/29 13:36:53;;;;;;;3.40;1.30;;;20.40;99.90;;;;;;5113409;28;20047;-67
2023/08/29 13:39:57;;;;;;;2.90;1.27;;;20.50;99.90;;;;;;5112185;28;20038;-68
2023/08/29 13:43:02;;;;;;;3.75;1.13;;;20.60;99.90;;;;;;5113111;28;20247;-67
2023/08/29 13:46:06;;;;;;;2.67;1.02;;;20.70;99.90;;;;;;5113162;28;20394;-68
2023/08/29 13:49:11;;;;;;;3.17;1.08;;;20.90;99.90;;;;;;5112422;28;20050;-68
2023/08/29 13:52:15;;;;;;;6.85;1.20;;;21.40;99.90;;;;;;5112167;28;20047;-67
2023/08/29 13:55:19;;;;;;;2.55;0.80;;;21.80;99.90;;;;;;5112680;28;20390;-66
2023/08/29 13:58:22;;;;;;;2.85;0.95;;;22.20;99.90;;;;;;5112606;28;20050;-69
2023/08/29 14:01:26;;;;;;;2.10;0.60;;;22.50;99.90;;;;;;5112196;28;20051;-68
2023/08/29 14:04:31;;;;;;;2.60;0.93;;;22.60;99.90;;;;;;5112367;28;20047;-68
2023/08/29 14:07:36;;;;;;;3.15;1.20;;;22.60;99.90;;;;;;5112061;28;20055;-68
2023/08/29 14:10:39;;;;;;;4.93;1.30;;;22.40;99.90;;;;;;5111616;28;20047;-68
2023/08/29 14:13:43;;;;;;;4.40;0.93;;;22.20;99.90;;;;;;5111863;28;20047;-68
2023/08/29 14:16:47;;;;;;;4.15;1.20;;;21.90;99.90;;;;;;5112071;28;20043;-68
2023/08/29 14:19:52;;;;;;;3.17;1.10;;;21.90;99.90;;;;;;5098768;28;20050;-67
2023/08/29 14:23:00;;;;;;;3.65;1.33;;;21.60;99.90;;;;;;5111814;28;20039;-68
2023/08/29 14:26:08;;;;;;;3.65;1.25;;;21.30;99.90;;;;;;5112186;28;20125;-67
2023/08/29 14:29:13;;;;;;;3.92;1.20;;;21.10;99.90;;;;;;5112024;28;20497;-68
2023/08/29 14:32:17;;;;;;;4.88;1.52;;;20.90;99.90;;;;;;5112020;28;20113;-68
2023/08/29 14:35:21;;;;;;;3.33;1.13;;;20.70;99.90;;;;;;5112133;28;20424;-68
2023/08/29 14:38:25;;;;;;;5.43;1.15;;;20.50;99.90;;;;;;5111842;28;20039;-68
2023/08/29 14:41:29;;;;;;;2.35;1.13;;;20.40;99.90;;;;;;5111882;28;20042;-68
2023/08/29 14:44:34;;;;;;;5.05;1.45;;;20.30;99.90;;;;;;5112340;28;20042;-67
2023/08/29 14:47:37;;;;;;;3.47;0.95;;;20.20;99.90;;;;;;5112081;28;20051;-68
2023/08/29 14:50:44;;;;;;;4.38;1.17;;;20.00;99.90;;;;;;5111395;28;20050;-67
2023/08/29 14:53:51;;;;;;;4.85;1.40;;;19.90;99.90;;;;;;5111888;28;20377;-69
2023/08/29 14:56:55;;;;;;;2.40;1.23;;;19.80;99.90;;;;;;5112037;28;20058;-68
2023/08/29 15:00:00;;;;;;;4.07;0.80;;;19.80;99.90;;;;;;5111561;28;20051;-68
2023/08/29 15:03:05;;;;;;;2.22;1.15;;;19.80;99.90;;;;;;5111517;28;20038;-68
2023/08/29 15:06:11;;;;;;;4.18;0.90;;;19.80;99.90;;;;;;5111440;28;20047;-67
2023/08/29 15:09:16;;;;;;;2.22;1.10;;;19.70;99.90;;;;;;5110878;28;20050;-67
2023/08/29 15:12:21;;;;;;;2.85;0.93;;;19.80;99.90;;;;;;5112095;28;20058;-69
2023/08/29 15:15:26;;;;;;;5.35;1.33;;;19.90;99.90;;;;;;5111483;28;20429;-67
2023/08/29 15:18:30;;;;;;;2.22;0.88;;;19.90;99.90;;;;;;5111646;28;20047;-68
2023/08/29 15:21:35;;;;;;;2.80;1.02;;;20.00;99.90;;;;;;5111451;28;20140;-68
2023/08/29 15:24:39;;;;;;;1.80;0.85;;;20.00;99.90;;;;;;5111579;28;20038;-67
2023/08/29 15:27:42;;;;;;;2.38;0.88;;;20.20;99.90;;;;;;5111687;28;20046;-68
2023/08/29 15:30:51;;;;;;;4.43;1.08;;;20.30;99.90;;;;;;5098058;28;20042;-68
2023/08/29 15:33:55;;;;;;;2.33;0.95;;;20.30;99.90;;;;;;5111514;28;20054;-68
2023/08/29 15:37:00;;;;;;;6.47;1.20;;;20.40;99.90;;;;;;5111016;28;20517;-68
2023/08/29 15:40:07;;;;;;;1.90;0.65;;;20.40;99.90;;;;;;5111005;28;20050;-68
2023/08/29 15:43:11;;;;;;;2.47;0.85;;;20.50;99.90;;;;;;5111055;28;20043;-67
2023/08/29 15:46:15;;;;;;;3.03;1.00;;;20.60;99.90;;;;;;5098912;28;20038;-68
2023/08/29 15:49:19;;;;;;;2.25;0.77;;;20.80;99.90;;;;;;5110896;28;20054;-67
2023/08/29 15:52:23;;;;;;;5.55;0.80;;;21.10;99.90;;;;;;5098482;28;20430;-67
2023/08/29 15:55:27;;;;;;;4.70;0.90;;;21.40;99.90;;;;;;5110848;28;20066;-68
2023/08/29 15:58:36;;;;;;;2.45;0.90;;;21.70;99.90;;;;;;5111293;28;20068;-68